sensor_id;sensor_type;location;lat;lon;timestamp;temperature;humidity
3208;DHT22;1616;52.394;9.756;2023-01-28T00:00:04;3.40;1.00
3208;DHT22;1616;52.394;9.756;2023-01-28T00:02:31;3.40;1.00
3208;DHT22;1616;52.394;9.756;2023-01-28T00:04:57;3.30;1.00
3208;DHT22;1616;52.394;9.756;2023-01-28T00:07:23;3.30;1.00
3208;DHT22;1616;52.394;9.756;2023-01-28T00:09:49;3.40;1.00
3208;DHT22;1616;52.394;9.756;2023-01-28T00:12:15;3.40;1.00
3208;DHT22;1616;52.394;9.756;2023-01-28T00:14:41;3.40;1.00
3208;DHT22;1616;52.394;9.756;2023-01-28T00:17:07;3.40;1.00
3208;DHT22;1616;52.394;9.756;2023-01-28T00:19:32;3.40;1.00
3208;DHT22;1616;52.394;9.756;2023-01-28T00:21:58;3.40;1.00
3208;DHT22;1616;52.394;9.756;2023-01-28T00:24:23;3.40;1.00
3208;DHT22;1616;52.394;9.756;2023-01-28T00:26:49;3.40;1.00
3208;DHT22;1616;52.394;9.756;2023-01-28T00:29:15;3.40;1.00
3208;DHT22;1616;52.394;9.756;2023-01-28T00:31:40;3.40;1.00
3208;DHT22;1616;52.394;9.756;2023-01-28T00:34:06;3.40;1.00
3208;DHT22;1616;52.394;9.756;2023-01-28T00:36:32;3.40;1.00
3208;DHT22;1616;52.394;9.756;2023-01-28T00:38:58;3.40;1.00
3208;DHT22;1616;52.394;9.756;2023-01-28T00:41:27;3.40;1.00
3208;DHT22;1616;52.394;9.756;2023-01-28T00:43:53;3.40;1.00
3208;DHT22;1616;52.394;9.756;2023-01-28T00:46:20;3.40;1.00
3208;DHT22;1616;52.394;9.756;2023-01-28T00:48:46;3.40;1.00
3208;DHT22;1616;52.394;9.756;2023-01-28T00:51:14;3.40;1.00
3208;DHT22;1616;52.394;9.756;2023-01-28T00:53:42;3.30;1.00
3208;DHT22;1616;52.394;9.756;2023-01-28T00:56:10;3.40;1.00
3208;DHT22;1616;52.394;9.756;2023-01-28T00:58:37;3.40;1.00
3208;DHT22;1616;52.394;9.756;2023-01-28T01:01:11;3.40;1.00
3208;DHT22;1616;52.394;9.756;2023-01-28T01:03:37;3.40;1.00
3208;DHT22;1616;52.394;9.756;2023-01-28T01:06:03;3.40;1.00
3208;DHT22;1616;52.394;9.756;2023-01-28T01:08:29;3.40;1.00
3208;DHT22;1616;52.394;9.756;2023-01-28T01:11:03;3.40;1.00
3208;DHT22;1616;52.394;9.756;2023-01-28T01:13:29;3.40;1.00
3208;DHT22;1616;52.394;9.756;2023-01-28T01:16:05;3.30;1.00
3208;DHT22;1616;52.394;9.756;2023-01-28T01:18:32;3.40;1.00
3208;DHT22;1616;52.394;9.756;2023-01-28T01:21:00;3.40;1.00
3208;DHT22;1616;52.394;9.756;2023-01-28T01:23:26;3.40;1.00
3208;DHT22;1616;52.394;9.756;2023-01-28T01:25:52;3.40;1.00
3208;DHT22;1616;52.394;9.756;2023-01-28T01:28:18;3.40;1.00
3208;DHT22;1616;52.394;9.756;2023-01-28T01:30:46;3.40;1.00
3208;DHT22;1616;52.394;9.756;2023-01-28T01:33:12;3.40;1.00
3208;DHT22;1616;52.394;9.756;2023-01-28T01:35:38;3.40;1.00
3208;DHT22;1616;52.394;9.756;2023-01-28T01:38:03;3.40;1.00
3208;DHT22;1616;52.394;9.756;2023-01-28T01:40:29;3.40;1.00
3208;DHT22;1616;52.394;9.756;2023-01-28T01:42:54;3.50;1.00
3208;DHT22;1616;52.394;9.756;2023-01-28T01:45:20;3.30;1.00
3208;DHT22;1616;52.394;9.756;2023-01-28T01:48:05;3.40;1.00
3208;DHT22;1616;52.394;9.756;2023-01-28T01:50:38;3.40;1.00
3208;DHT22;1616;52.394;9.756;2023-01-28T01:53:15;3.40;1.00
3208;DHT22;1616;52.394;9.756;2023-01-28T01:55:47;3.30;1.00
3208;DHT22;1616;52.394;9.756;2023-01-28T01:58:17;3.40;1.00
3208;DHT22;1616;52.394;9.756;2023-01-28T02:00:45;3.30;1.00
3208;DHT22;1616;52.394;9.756;2023-01-28T02:03:11;3.30;1.00
3208;DHT22;1616;52.394;9.756;2023-01-28T02:05:38;3.30;1.00
3208;DHT22;1616;52.394;9.756;2023-01-28T02:08:04;3.30;1.00
3208;DHT22;1616;52.394;9.756;2023-01-28T02:10:55;3.30;1.00
3208;DHT22;1616;52.394;9.756;2023-01-28T02:13:26;3.20;1.00
3208;DHT22;1616;52.394;9.756;2023-01-28T02:15:54;3.20;1.00
3208;DHT22;1616;52.394;9.756;2023-01-28T02:18:20;3.20;1.00
3208;DHT22;1616;52.394;9.756;2023-01-28T02:21:08;3.30;1.00
3208;DHT22;1616;52.394;9.756;2023-01-28T02:24:07;3.20;1.00
3208;DHT22;1616;52.394;9.756;2023-01-28T02:29:37;3.20;1.00
3208;DHT22;1616;52.394;9.756;2023-01-28T02:32:16;3.20;1.00
3208;DHT22;1616;52.394;9.756;2023-01-28T02:37:43;3.20;1.00
3208;DHT22;1616;52.394;9.756;2023-01-28T02:40:13;3.20;1.00
3208;DHT22;1616;52.394;9.756;2023-01-28T02:42:41;3.20;1.00
3208;DHT22;1616;52.394;9.756;2023-01-28T02:45:25;3.20;1.00
3208;DHT22;1616;52.394;9.756;2023-01-28T02:48:11;3.20;1.00
3208;DHT22;1616;52.394;9.756;2023-01-28T02:50:58;3.20;1.00
3208;DHT22;1616;52.394;9.756;2023-01-28T02:53:37;3.20;1.00
3208;DHT22;1616;52.394;9.756;2023-01-28T02:56:23;3.20;1.00
3208;DHT22;1616;52.394;9.756;2023-01-28T03:01:55;3.10;1.00
3208;DHT22;1616;52.394;9.756;2023-01-28T03:05:36;3.00;1.00
3208;DHT22;1616;52.394;9.756;2023-01-28T03:07:45;3.10;1.00
3208;DHT22;1616;52.394;9.756;2023-01-28T03:10:14;3.10;1.00
3208;DHT22;1616;52.394;9.756;2023-01-28T03:12:42;3.10;1.00
3208;DHT22;1616;52.394;9.756;2023-01-28T03:15:57;3.00;1.00
3208;DHT22;1616;52.394;9.756;2023-01-28T03:18:48;3.00;1.00
3208;DHT22;1616;52.394;9.756;2023-01-28T03:21:43;3.00;1.00
3208;DHT22;1616;52.394;9.756;2023-01-28T03:24:41;3.00;1.00
3208;DHT22;1616;52.394;9.756;2023-01-28T03:27:27;3.00;1.00
3208;DHT22;1616;52.394;9.756;2023-01-28T03:30:17;2.90;1.00
3208;DHT22;1616;52.394;9.756;2023-01-28T03:33:03;2.90;1.00
3208;DHT22;1616;52.394;9.756;2023-01-28T03:35:48;2.80;1.00
3208;DHT22;1616;52.394;9.756;2023-01-28T03:38:33;2.90;1.00
3208;DHT22;1616;52.394;9.756;2023-01-28T03:41:08;2.90;1.00
3208;DHT22;1616;52.394;9.756;2023-01-28T03:43:35;2.80;1.00
3208;DHT22;1616;52.394;9.756;2023-01-28T03:46:02;2.90;1.00
3208;DHT22;1616;52.394;9.756;2023-01-28T03:48:30;2.90;1.00
3208;DHT22;1616;52.394;9.756;2023-01-28T03:50:57;2.90;1.00
3208;DHT22;1616;52.394;9.756;2023-01-28T03:53:25;2.90;1.00
3208;DHT22;1616;52.394;9.756;2023-01-28T03:55:52;2.90;1.00
3208;DHT22;1616;52.394;9.756;2023-01-28T03:58:19;2.90;1.00
3208;DHT22;1616;52.394;9.756;2023-01-28T04:00:45;2.90;1.00
3208;DHT22;1616;52.394;9.756;2023-01-28T04:03:13;2.90;1.00
3208;DHT22;1616;52.394;9.756;2023-01-28T04:08:23;2.90;1.00
3208;DHT22;1616;52.394;9.756;2023-01-28T04:10:49;2.90;1.00
3208;DHT22;1616;52.394;9.756;2023-01-28T04:13:15;2.90;1.00
3208;DHT22;1616;52.394;9.756;2023-01-28T04:15:43;2.90;1.00
3208;DHT22;1616;52.394;9.756;2023-01-28T04:18:10;2.90;1.00
3208;DHT22;1616;52.394;9.756;2023-01-28T04:20:35;2.90;1.00
3208;DHT22;1616;52.394;9.756;2023-01-28T04:23:03;2.90;1.00
3208;DHT22;1616;52.394;9.756;2023-01-28T04:25:30;2.90;1.00
3208;DHT22;1616;52.394;9.756;2023-01-28T04:27:55;3.00;1.00
3208;DHT22;1616;52.394;9.756;2023-01-28T04:30:21;2.90;1.00
3208;DHT22;1616;52.394;9.756;2023-01-28T04:32:47;2.90;1.00
3208;DHT22;1616;52.394;9.756;2023-01-28T04:35:15;2.80;1.00
3208;DHT22;1616;52.394;9.756;2023-01-28T04:37:41;2.80;1.00
3208;DHT22;1616;52.394;9.756;2023-01-28T04:40:08;2.80;1.00
3208;DHT22;1616;52.394;9.756;2023-01-28T04:42:34;2.80;1.00
3208;DHT22;1616;52.394;9.756;2023-01-28T04:44:59;2.80;1.00
3208;DHT22;1616;52.394;9.756;2023-01-28T04:47:26;2.80;1.00
3208;DHT22;1616;52.394;9.756;2023-01-28T04:49:52;2.80;1.00
3208;DHT22;1616;52.394;9.756;2023-01-28T04:52:17;2.90;1.00
3208;DHT22;1616;52.394;9.756;2023-01-28T04:54:43;2.80;1.00
3208;DHT22;1616;52.394;9.756;2023-01-28T04:57:08;2.80;1.00
3208;DHT22;1616;52.394;9.756;2023-01-28T04:59:34;2.70;1.00
3208;DHT22;1616;52.394;9.756;2023-01-28T05:02:00;2.80;1.00
3208;DHT22;1616;52.394;9.756;2023-01-28T05:04:25;2.70;1.00
3208;DHT22;1616;52.394;9.756;2023-01-28T05:06:51;2.80;1.00
3208;DHT22;1616;52.394;9.756;2023-01-28T05:09:16;2.80;1.00
3208;DHT22;1616;52.394;9.756;2023-01-28T05:11:42;2.80;1.00
3208;DHT22;1616;52.394;9.756;2023-01-28T05:14:08;2.80;1.00
3208;DHT22;1616;52.394;9.756;2023-01-28T05:16:34;2.80;1.00
3208;DHT22;1616;52.394;9.756;2023-01-28T05:19:00;2.80;1.00
3208;DHT22;1616;52.394;9.756;2023-01-28T05:21:26;2.80;1.00
3208;DHT22;1616;52.394;9.756;2023-01-28T05:23:52;2.80;1.00
3208;DHT22;1616;52.394;9.756;2023-01-28T05:26:18;2.80;1.00
3208;DHT22;1616;52.394;9.756;2023-01-28T05:28:43;2.80;1.00
3208;DHT22;1616;52.394;9.756;2023-01-28T05:31:10;2.70;1.00
3208;DHT22;1616;52.394;9.756;2023-01-28T05:33:36;2.70;1.00
3208;DHT22;1616;52.394;9.756;2023-01-28T05:36:02;2.70;1.00
3208;DHT22;1616;52.394;9.756;2023-01-28T05:38:29;2.70;1.00
3208;DHT22;1616;52.394;9.756;2023-01-28T05:40:55;2.70;1.00
3208;DHT22;1616;52.394;9.756;2023-01-28T05:43:20;2.70;1.00
3208;DHT22;1616;52.394;9.756;2023-01-28T05:45:46;2.70;1.00
3208;DHT22;1616;52.394;9.756;2023-01-28T05:48:12;2.70;1.00
3208;DHT22;1616;52.394;9.756;2023-01-28T05:50:38;2.60;1.00
3208;DHT22;1616;52.394;9.756;2023-01-28T05:53:07;2.60;1.00
3208;DHT22;1616;52.394;9.756;2023-01-28T05:55:33;2.60;1.00
3208;DHT22;1616;52.394;9.756;2023-01-28T05:57:59;2.60;1.00
3208;DHT22;1616;52.394;9.756;2023-01-28T06:00:25;2.60;1.00
3208;DHT22;1616;52.394;9.756;2023-01-28T06:02:51;2.60;1.00
3208;DHT22;1616;52.394;9.756;2023-01-28T06:05:17;2.50;1.00
3208;DHT22;1616;52.394;9.756;2023-01-28T06:07:46;2.50;1.00
3208;DHT22;1616;52.394;9.756;2023-01-28T06:10:13;2.50;1.00
3208;DHT22;1616;52.394;9.756;2023-01-28T06:12:40;2.50;1.00
3208;DHT22;1616;52.394;9.756;2023-01-28T06:15:07;2.50;1.00
3208;DHT22;1616;52.394;9.756;2023-01-28T06:17:33;2.50;1.00
3208;DHT22;1616;52.394;9.756;2023-01-28T06:19:58;2.50;1.00
3208;DHT22;1616;52.394;9.756;2023-01-28T06:22:24;2.50;1.00
3208;DHT22;1616;52.394;9.756;2023-01-28T06:24:49;2.40;1.00
3208;DHT22;1616;52.394;9.756;2023-01-28T06:27:15;2.50;1.00
3208;DHT22;1616;52.394;9.756;2023-01-28T06:29:41;2.50;1.00
3208;DHT22;1616;52.394;9.756;2023-01-28T06:32:07;2.50;1.00
3208;DHT22;1616;52.394;9.756;2023-01-28T06:34:32;2.50;1.00
3208;DHT22;1616;52.394;9.756;2023-01-28T06:36:58;2.50;1.00
3208;DHT22;1616;52.394;9.756;2023-01-28T06:39:23;2.50;1.00
3208;DHT22;1616;52.394;9.756;2023-01-28T06:41:51;2.90;1.00
3208;DHT22;1616;52.394;9.756;2023-01-28T06:44:17;3.00;1.00
3208;DHT22;1616;52.394;9.756;2023-01-28T06:46:43;3.10;1.00
3208;DHT22;1616;52.394;9.756;2023-01-28T06:49:09;3.00;1.00
3208;DHT22;1616;52.394;9.756;2023-01-28T06:51:35;3.00;1.00
3208;DHT22;1616;52.394;9.756;2023-01-28T06:54:00;2.90;1.00
3208;DHT22;1616;52.394;9.756;2023-01-28T06:56:26;1.80;1.00
3208;DHT22;1616;52.394;9.756;2023-01-28T06:58:51;2.80;1.00
3208;DHT22;1616;52.394;9.756;2023-01-28T07:01:17;2.80;1.00
3208;DHT22;1616;52.394;9.756;2023-01-28T07:03:42;2.70;1.00
3208;DHT22;1616;52.394;9.756;2023-01-28T07:06:08;2.70;1.00
3208;DHT22;1616;52.394;9.756;2023-01-28T07:08:34;2.60;1.00
3208;DHT22;1616;52.394;9.756;2023-01-28T07:11:02;2.60;1.00
3208;DHT22;1616;52.394;9.756;2023-01-28T07:13:29;2.50;1.00
3208;DHT22;1616;52.394;9.756;2023-01-28T07:15:55;2.50;1.00
3208;DHT22;1616;52.394;9.756;2023-01-28T07:18:21;2.50;1.00
3208;DHT22;1616;52.394;9.756;2023-01-28T07:20:47;2.50;1.00
3208;DHT22;1616;52.394;9.756;2023-01-28T07:23:12;2.50;1.00
3208;DHT22;1616;52.394;9.756;2023-01-28T07:25:38;2.50;1.00
3208;DHT22;1616;52.394;9.756;2023-01-28T07:28:05;2.50;1.00
3208;DHT22;1616;52.394;9.756;2023-01-28T07:30:31;2.50;1.00
3208;DHT22;1616;52.394;9.756;2023-01-28T07:32:57;2.50;1.00
3208;DHT22;1616;52.394;9.756;2023-01-28T07:35:24;2.50;1.00
3208;DHT22;1616;52.394;9.756;2023-01-28T07:37:52;2.60;1.00
3208;DHT22;1616;52.394;9.756;2023-01-28T07:40:17;2.60;1.00
3208;DHT22;1616;52.394;9.756;2023-01-28T07:42:43;2.60;1.00
3208;DHT22;1616;52.394;9.756;2023-01-28T07:45:09;2.60;1.00
3208;DHT22;1616;52.394;9.756;2023-01-28T07:47:35;2.60;1.00
3208;DHT22;1616;52.394;9.756;2023-01-28T07:50:00;2.60;1.00
3208;DHT22;1616;52.394;9.756;2023-01-28T07:52:26;2.50;1.00
3208;DHT22;1616;52.394;9.756;2023-01-28T07:54:52;2.60;1.00
3208;DHT22;1616;52.394;9.756;2023-01-28T07:57:18;2.70;1.00
3208;DHT22;1616;52.394;9.756;2023-01-28T07:59:49;2.60;1.00
3208;DHT22;1616;52.394;9.756;2023-01-28T08:02:15;2.60;1.00
3208;DHT22;1616;52.394;9.756;2023-01-28T08:04:41;2.60;1.00
3208;DHT22;1616;52.394;9.756;2023-01-28T08:07:07;2.70;1.00
3208;DHT22;1616;52.394;9.756;2023-01-28T08:09:33;2.70;1.00
3208;DHT22;1616;52.394;9.756;2023-01-28T08:12:00;2.70;1.00
3208;DHT22;1616;52.394;9.756;2023-01-28T08:14:27;2.70;1.00
3208;DHT22;1616;52.394;9.756;2023-01-28T08:16:53;2.80;1.00
3208;DHT22;1616;52.394;9.756;2023-01-28T08:19:19;2.80;1.00
3208;DHT22;1616;52.394;9.756;2023-01-28T08:21:49;2.80;1.00
3208;DHT22;1616;52.394;9.756;2023-01-28T08:24:16;2.80;1.00
3208;DHT22;1616;52.394;9.756;2023-01-28T08:26:41;2.90;1.00
3208;DHT22;1616;52.394;9.756;2023-01-28T08:29:08;3.00;1.00
3208;DHT22;1616;52.394;9.756;2023-01-28T08:31:33;3.00;1.00
3208;DHT22;1616;52.394;9.756;2023-01-28T08:33:59;3.10;1.00
3208;DHT22;1616;52.394;9.756;2023-01-28T08:36:25;3.10;1.00
3208;DHT22;1616;52.394;9.756;2023-01-28T08:38:53;3.10;1.00
3208;DHT22;1616;52.394;9.756;2023-01-28T08:41:20;3.20;1.00
3208;DHT22;1616;52.394;9.756;2023-01-28T08:43:47;3.20;1.00
3208;DHT22;1616;52.394;9.756;2023-01-28T08:46:12;3.20;1.00
3208;DHT22;1616;52.394;9.756;2023-01-28T08:48:39;3.30;1.00
3208;DHT22;1616;52.394;9.756;2023-01-28T08:51:05;3.30;1.00
3208;DHT22;1616;52.394;9.756;2023-01-28T08:53:30;3.40;1.00
3208;DHT22;1616;52.394;9.756;2023-01-28T08:55:56;3.40;1.00
3208;DHT22;1616;52.394;9.756;2023-01-28T08:58:22;3.60;1.00
3208;DHT22;1616;52.394;9.756;2023-01-28T09:00:48;3.70;1.00
3208;DHT22;1616;52.394;9.756;2023-01-28T09:03:15;3.80;1.00
3208;DHT22;1616;52.394;9.756;2023-01-28T09:05:40;3.90;1.00
3208;DHT22;1616;52.394;9.756;2023-01-28T09:08:09;4.00;1.00
3208;DHT22;1616;52.394;9.756;2023-01-28T09:10:35;4.20;1.00
3208;DHT22;1616;52.394;9.756;2023-01-28T09:13:10;4.20;1.00
3208;DHT22;1616;52.394;9.756;2023-01-28T09:15:36;4.50;1.00
3208;DHT22;1616;52.394;9.756;2023-01-28T09:18:03;4.60;1.00
3208;DHT22;1616;52.394;9.756;2023-01-28T09:20:29;4.60;1.00
3208;DHT22;1616;52.394;9.756;2023-01-28T09:22:58;4.60;1.00
3208;DHT22;1616;52.394;9.756;2023-01-28T09:25:24;4.60;1.00
3208;DHT22;1616;52.394;9.756;2023-01-28T09:27:49;4.60;1.00
3208;DHT22;1616;52.394;9.756;2023-01-28T09:30:16;4.40;1.00
3208;DHT22;1616;52.394;9.756;2023-01-28T09:32:42;4.40;1.00
3208;DHT22;1616;52.394;9.756;2023-01-28T09:35:08;4.30;1.00
3208;DHT22;1616;52.394;9.756;2023-01-28T09:37:34;4.30;1.00
3208;DHT22;1616;52.394;9.756;2023-01-28T09:40:00;4.20;1.00
3208;DHT22;1616;52.394;9.756;2023-01-28T09:42:40;3.90;1.00
3208;DHT22;1616;52.394;9.756;2023-01-28T09:45:41;3.90;1.00
3208;DHT22;1616;52.394;9.756;2023-01-28T09:48:20;3.80;1.00
3208;DHT22;1616;52.394;9.756;2023-01-28T09:50:52;3.70;1.00
3208;DHT22;1616;52.394;9.756;2023-01-28T09:53:25;3.70;1.00
3208;DHT22;1616;52.394;9.756;2023-01-28T09:55:59;3.70;1.00
3208;DHT22;1616;52.394;9.756;2023-01-28T09:58:25;3.70;1.00
3208;DHT22;1616;52.394;9.756;2023-01-28T10:03:42;3.60;1.00
3208;DHT22;1616;52.394;9.756;2023-01-28T10:06:23;3.40;1.00
3208;DHT22;1616;52.394;9.756;2023-01-28T10:09:03;3.50;1.00
3208;DHT22;1616;52.394;9.756;2023-01-28T10:17:25;3.40;1.00
3208;DHT22;1616;52.394;9.756;2023-01-28T10:19:56;3.40;1.00
3208;DHT22;1616;52.394;9.756;2023-01-28T10:22:29;3.30;1.00
3208;DHT22;1616;52.394;9.756;2023-01-28T10:25:01;3.30;1.00
3208;DHT22;1616;52.394;9.756;2023-01-28T10:27:33;3.30;1.00
3208;DHT22;1616;52.394;9.756;2023-01-28T10:35:44;3.50;1.00
3208;DHT22;1616;52.394;9.756;2023-01-28T10:38:13;3.60;1.00
3208;DHT22;1616;52.394;9.756;2023-01-28T10:40:41;3.80;1.00
3208;DHT22;1616;52.394;9.756;2023-01-28T10:43:07;3.90;1.00
3208;DHT22;1616;52.394;9.756;2023-01-28T10:46:11;4.00;1.00
3208;DHT22;1616;52.394;9.756;2023-01-28T10:49:01;4.20;1.00
3208;DHT22;1616;52.394;9.756;2023-01-28T10:51:37;4.30;1.00
3208;DHT22;1616;52.394;9.756;2023-01-28T10:56:43;4.50;1.00
3208;DHT22;1616;52.394;9.756;2023-01-28T10:59:28;4.50;1.00
3208;DHT22;1616;52.394;9.756;2023-01-28T11:02:03;4.50;1.00
3208;DHT22;1616;52.394;9.756;2023-01-28T11:04:34;4.50;1.00
3208;DHT22;1616;52.394;9.756;2023-01-28T11:07:19;4.50;1.00
3208;DHT22;1616;52.394;9.756;2023-01-28T11:09:49;4.40;1.00
3208;DHT22;1616;52.394;9.756;2023-01-28T11:14:59;4.40;1.00
3208;DHT22;1616;52.394;9.756;2023-01-28T11:17:32;4.40;1.00
3208;DHT22;1616;52.394;9.756;2023-01-28T11:20:08;4.50;1.00
3208;DHT22;1616;52.394;9.756;2023-01-28T11:22:44;4.50;1.00
3208;DHT22;1616;52.394;9.756;2023-01-28T11:25:31;4.50;1.00
3208;DHT22;1616;52.394;9.756;2023-01-28T11:27:59;4.50;1.00
3208;DHT22;1616;52.394;9.756;2023-01-28T11:30:31;4.70;1.00
3208;DHT22;1616;52.394;9.756;2023-01-28T11:33:15;4.70;1.00
3208;DHT22;1616;52.394;9.756;2023-01-28T11:35:41;4.80;1.00
3208;DHT22;1616;52.394;9.756;2023-01-28T11:38:25;4.90;1.00
3208;DHT22;1616;52.394;9.756;2023-01-28T11:40:52;5.00;1.00
3208;DHT22;1616;52.394;9.756;2023-01-28T11:43:22;5.10;1.00
3208;DHT22;1616;52.394;9.756;2023-01-28T11:49:04;5.30;1.00
3208;DHT22;1616;52.394;9.756;2023-01-28T11:54:38;5.70;1.00
3208;DHT22;1616;52.394;9.756;2023-01-28T11:57:24;5.80;1.00
3208;DHT22;1616;52.394;9.756;2023-01-28T12:02:48;7.20;1.00
3208;DHT22;1616;52.394;9.756;2023-01-28T12:08:11;9.20;1.00
3208;DHT22;1616;52.394;9.756;2023-01-28T12:10:47;9.50;1.00
3208;DHT22;1616;52.394;9.756;2023-01-28T12:13:40;9.70;1.00
3208;DHT22;1616;52.394;9.756;2023-01-28T12:21:45;10.00;1.00
3208;DHT22;1616;52.394;9.756;2023-01-28T12:24:39;9.80;1.00
3208;DHT22;1616;52.394;9.756;2023-01-28T12:27:24;9.90;1.00
3208;DHT22;1616;52.394;9.756;2023-01-28T12:30:02;9.80;1.00
3208;DHT22;1616;52.394;9.756;2023-01-28T12:45:57;10.20;1.00
3208;DHT22;1616;52.394;9.756;2023-01-28T12:48:36;10.20;1.00
3208;DHT22;1616;52.394;9.756;2023-01-28T12:51:29;10.20;1.00
3208;DHT22;1616;52.394;9.756;2023-01-28T12:54:03;10.10;1.00
3208;DHT22;1616;52.394;9.756;2023-01-28T12:56:34;9.80;1.00
3208;DHT22;1616;52.394;9.756;2023-01-28T13:04:41;8.20;1.00
3208;DHT22;1616;52.394;9.756;2023-01-28T13:07:34;7.60;1.00
3208;DHT22;1616;52.394;9.756;2023-01-28T13:10:19;7.10;1.00
3208;DHT22;1616;52.394;9.756;2023-01-28T13:12:47;6.60;1.00
3208;DHT22;1616;52.394;9.756;2023-01-28T13:15:16;6.20;1.00
3208;DHT22;1616;52.394;9.756;2023-01-28T13:17:57;5.90;1.00
3208;DHT22;1616;52.394;9.756;2023-01-28T13:20:46;5.70;1.00
3208;DHT22;1616;52.394;9.756;2023-01-28T13:23:25;5.40;1.00
3208;DHT22;1616;52.394;9.756;2023-01-28T13:25:53;5.20;1.00
3208;DHT22;1616;52.394;9.756;2023-01-28T13:28:30;5.00;1.00
3208;DHT22;1616;52.394;9.756;2023-01-28T13:31:04;4.80;1.00
3208;DHT22;1616;52.394;9.756;2023-01-28T13:33:39;4.70;1.00
3208;DHT22;1616;52.394;9.756;2023-01-28T13:36:28;4.60;1.00
3208;DHT22;1616;52.394;9.756;2023-01-28T13:39:18;4.60;1.00
3208;DHT22;1616;52.394;9.756;2023-01-28T13:41:47;4.50;1.00
3208;DHT22;1616;52.394;9.756;2023-01-28T13:46:54;4.30;1.00
3208;DHT22;1616;52.394;9.756;2023-01-28T13:49:31;4.30;1.00
3208;DHT22;1616;52.394;9.756;2023-01-28T13:52:14;4.20;1.00
3208;DHT22;1616;52.394;9.756;2023-01-28T13:54:50;4.20;1.00
3208;DHT22;1616;52.394;9.756;2023-01-28T14:00:26;4.30;1.00
3208;DHT22;1616;52.394;9.756;2023-01-28T14:09:01;4.30;1.00
3208;DHT22;1616;52.394;9.756;2023-01-28T14:14:49;4.10;1.00
3208;DHT22;1616;52.394;9.756;2023-01-28T14:17:47;4.10;1.00
3208;DHT22;1616;52.394;9.756;2023-01-28T14:20:42;3.90;1.00
3208;DHT22;1616;52.394;9.756;2023-01-28T14:23:22;3.80;1.00
3208;DHT22;1616;52.394;9.756;2023-01-28T14:26:07;3.70;1.00
3208;DHT22;1616;52.394;9.756;2023-01-28T14:31:26;3.50;1.00
3208;DHT22;1616;52.394;9.756;2023-01-28T14:33:54;3.40;1.00
3208;DHT22;1616;52.394;9.756;2023-01-28T14:36:22;3.30;1.00
3208;DHT22;1616;52.394;9.756;2023-01-28T14:38:49;3.20;1.00
3208;DHT22;1616;52.394;9.756;2023-01-28T14:41:24;3.10;1.00
3208;DHT22;1616;52.394;9.756;2023-01-28T14:43:53;3.00;1.00
3208;DHT22;1616;52.394;9.756;2023-01-28T14:59:23;2.90;1.00
3208;DHT22;1616;52.394;9.756;2023-01-28T15:01:55;2.80;1.00
3208;DHT22;1616;52.394;9.756;2023-01-28T15:04:29;2.70;1.00
3208;DHT22;1616;52.394;9.756;2023-01-28T15:06:57;2.70;1.00
3208;DHT22;1616;52.394;9.756;2023-01-28T15:09:25;2.60;1.00
3208;DHT22;1616;52.394;9.756;2023-01-28T15:11:54;2.60;1.00
3208;DHT22;1616;52.394;9.756;2023-01-28T15:14:30;2.50;1.00
3208;DHT22;1616;52.394;9.756;2023-01-28T15:16:56;2.50;1.00
3208;DHT22;1616;52.394;9.756;2023-01-28T15:19:27;2.50;1.00
3208;DHT22;1616;52.394;9.756;2023-01-28T15:21:55;2.50;1.00
3208;DHT22;1616;52.394;9.756;2023-01-28T15:24:22;2.40;1.00
3208;DHT22;1616;52.394;9.756;2023-01-28T15:26:48;2.40;1.00
3208;DHT22;1616;52.394;9.756;2023-01-28T15:29:34;2.40;1.00
3208;DHT22;1616;52.394;9.756;2023-01-28T15:32:02;2.30;1.00
3208;DHT22;1616;52.394;9.756;2023-01-28T15:34:29;2.30;1.00
3208;DHT22;1616;52.394;9.756;2023-01-28T15:37:01;2.20;1.00
3208;DHT22;1616;52.394;9.756;2023-01-28T15:39:28;2.20;1.00
3208;DHT22;1616;52.394;9.756;2023-01-28T15:42:00;2.00;1.00
3208;DHT22;1616;52.394;9.756;2023-01-28T15:47:00;2.00;1.00
3208;DHT22;1616;52.394;9.756;2023-01-28T15:49:30;2.00;1.00
3208;DHT22;1616;52.394;9.756;2023-01-28T15:51:57;1.90;1.00
3208;DHT22;1616;52.394;9.756;2023-01-28T15:54:23;1.90;1.00
3208;DHT22;1616;52.394;9.756;2023-01-28T15:56:49;1.90;1.00
3208;DHT22;1616;52.394;9.756;2023-01-28T16:01:41;1.80;1.00
3208;DHT22;1616;52.394;9.756;2023-01-28T16:04:28;2.70;1.00
3208;DHT22;1616;52.394;9.756;2023-01-28T16:06:56;1.70;1.00
3208;DHT22;1616;52.394;9.756;2023-01-28T16:09:29;1.60;1.00
3208;DHT22;1616;52.394;9.756;2023-01-28T16:12:21;1.60;1.00
3208;DHT22;1616;52.394;9.756;2023-01-28T16:17:30;1.50;1.00
3208;DHT22;1616;52.394;9.756;2023-01-28T16:20:05;1.40;1.00
3208;DHT22;1616;52.394;9.756;2023-01-28T16:22:39;1.40;1.00
3208;DHT22;1616;52.394;9.756;2023-01-28T16:27:50;1.30;1.00
3208;DHT22;1616;52.394;9.756;2023-01-28T16:30:16;1.30;1.00
3208;DHT22;1616;52.394;9.756;2023-01-28T16:32:42;1.20;1.00
3208;DHT22;1616;52.394;9.756;2023-01-28T16:35:20;1.20;1.00
3208;DHT22;1616;52.394;9.756;2023-01-28T16:37:48;1.10;1.00
3208;DHT22;1616;52.394;9.756;2023-01-28T16:40:15;1.10;1.00
3208;DHT22;1616;52.394;9.756;2023-01-28T16:42:41;1.10;1.00
3208;DHT22;1616;52.394;9.756;2023-01-28T16:45:20;1.00;1.00
3208;DHT22;1616;52.394;9.756;2023-01-28T16:47:46;1.00;1.00
3208;DHT22;1616;52.394;9.756;2023-01-28T16:50:13;1.00;1.00
3208;DHT22;1616;52.394;9.756;2023-01-28T16:52:44;1.00;1.00
3208;DHT22;1616;52.394;9.756;2023-01-28T16:55:15;1.00;1.00
3208;DHT22;1616;52.394;9.756;2023-01-28T16:57:42;1.00;1.00
3208;DHT22;1616;52.394;9.756;2023-01-28T17:00:16;0.90;1.00
3208;DHT22;1616;52.394;9.756;2023-01-28T17:02:44;0.90;1.00
3208;DHT22;1616;52.394;9.756;2023-01-28T17:05:10;0.90;1.00
3208;DHT22;1616;52.394;9.756;2023-01-28T17:07:36;0.90;1.00
3208;DHT22;1616;52.394;9.756;2023-01-28T17:10:02;0.80;1.00
3208;DHT22;1616;52.394;9.756;2023-01-28T17:12:28;0.90;1.00
3208;DHT22;1616;52.394;9.756;2023-01-28T17:14:54;0.80;1.00
3208;DHT22;1616;52.394;9.756;2023-01-28T17:17:19;0.80;1.00
3208;DHT22;1616;52.394;9.756;2023-01-28T17:19:45;0.80;1.00
3208;DHT22;1616;52.394;9.756;2023-01-28T17:22:10;0.80;1.00
3208;DHT22;1616;52.394;9.756;2023-01-28T17:24:36;0.70;1.00
3208;DHT22;1616;52.394;9.756;2023-01-28T17:27:02;0.80;1.00
3208;DHT22;1616;52.394;9.756;2023-01-28T17:29:27;0.80;1.00
3208;DHT22;1616;52.394;9.756;2023-01-28T17:31:53;0.80;1.00
3208;DHT22;1616;52.394;9.756;2023-01-28T17:34:18;0.80;1.00
3208;DHT22;1616;52.394;9.756;2023-01-28T17:36:44;0.80;1.00
3208;DHT22;1616;52.394;9.756;2023-01-28T17:39:09;0.70;1.00
3208;DHT22;1616;52.394;9.756;2023-01-28T17:41:35;0.70;1.00
3208;DHT22;1616;52.394;9.756;2023-01-28T17:44:01;0.70;1.00
3208;DHT22;1616;52.394;9.756;2023-01-28T17:46:28;0.70;1.00
3208;DHT22;1616;52.394;9.756;2023-01-28T17:48:54;0.70;1.00
3208;DHT22;1616;52.394;9.756;2023-01-28T17:51:20;0.60;1.00
3208;DHT22;1616;52.394;9.756;2023-01-28T17:53:51;0.70;1.00
3208;DHT22;1616;52.394;9.756;2023-01-28T17:56:25;0.70;1.00
3208;DHT22;1616;52.394;9.756;2023-01-28T17:58:57;0.70;1.00
3208;DHT22;1616;52.394;9.756;2023-01-28T18:01:25;0.70;1.00
3208;DHT22;1616;52.394;9.756;2023-01-28T18:03:51;0.70;1.00
3208;DHT22;1616;52.394;9.756;2023-01-28T18:06:16;0.70;1.00
3208;DHT22;1616;52.394;9.756;2023-01-28T18:08:43;0.70;1.00
3208;DHT22;1616;52.394;9.756;2023-01-28T18:11:10;0.70;1.00
3208;DHT22;1616;52.394;9.756;2023-01-28T18:13:37;0.70;1.00
3208;DHT22;1616;52.394;9.756;2023-01-28T18:16:05;0.70;1.00
3208;DHT22;1616;52.394;9.756;2023-01-28T18:18:31;0.70;1.00
3208;DHT22;1616;52.394;9.756;2023-01-28T18:21:03;0.60;1.00
3208;DHT22;1616;52.394;9.756;2023-01-28T18:23:30;0.60;1.00
3208;DHT22;1616;52.394;9.756;2023-01-28T18:25:57;0.50;1.00
3208;DHT22;1616;52.394;9.756;2023-01-28T18:28:23;0.60;1.00
3208;DHT22;1616;52.394;9.756;2023-01-28T18:30:50;0.60;1.00
3208;DHT22;1616;52.394;9.756;2023-01-28T18:33:17;0.60;1.00
3208;DHT22;1616;52.394;9.756;2023-01-28T18:35:46;0.60;1.00
3208;DHT22;1616;52.394;9.756;2023-01-28T18:38:15;0.60;1.00
3208;DHT22;1616;52.394;9.756;2023-01-28T18:40:46;0.60;1.00
3208;DHT22;1616;52.394;9.756;2023-01-28T18:43:13;0.60;1.00